createdAt,value
2023-02-28T00:01:27.442Z,48.22
2023-02-28T00:03:54.616Z,48.24
2023-02-28T00:06:21.890Z,48.20
2023-02-28T00:08:49.207Z,48.82
2023-02-28T00:11:16.929Z,48.32
2023-02-28T00:13:49.640Z,49.00
2023-02-28T00:16:23.070Z,48.96
2023-02-28T00:18:51.038Z,48.56
2023-02-28T00:21:19.645Z,49.06
2023-02-28T00:23:46.599Z,49.47
2023-02-28T00:26:13.732Z,49.13
2023-02-28T00:28:40.563Z,49.07
2023-02-28T00:31:07.456Z,49.12
2023-02-28T00:33:34.285Z,49.03
2023-02-28T00:36:10.844Z,49.03
2023-02-28T00:38:39.118Z,48.94
2023-02-28T00:41:06.832Z,48.98
2023-02-28T00:43:35.660Z,49.55
2023-02-28T00:46:03.733Z,49.17
2023-02-28T00:48:30.645Z,49.46
2023-02-28T00:50:57.507Z,49.95
2023-02-28T00:53:24.359Z,50.11
2023-02-28T00:55:51.766Z,50.06
2023-02-28T00:58:19.069Z,49.87
2023-02-28T01:00:49.858Z,49.99
2023-02-28T01:03:21.823Z,49.85
2023-02-28T01:05:48.686Z,49.69
2023-02-28T01:08:16.058Z,49.93
2023-02-28T01:10:43.758Z,50.07
2023-02-28T01:13:10.759Z,49.95
2023-02-28T01:15:46.953Z,50.21
2023-02-28T01:18:13.849Z,49.96
2023-02-28T01:20:40.836Z,50.25
2023-02-28T01:23:07.743Z,50.52
2023-02-28T01:25:36.918Z,50.99
2023-02-28T01:28:04.057Z,50.56
2023-02-28T01:30:31.520Z,50.49
2023-02-28T01:32:58.899Z,50.53
2023-02-28T01:35:25.966Z,50.27
2023-02-28T01:37:52.864Z,49.98
2023-02-28T01:40:19.737Z,49.90
2023-02-28T01:42:46.536Z,49.75
2023-02-28T01:45:26.741Z,49.65
2023-02-28T01:47:58.028Z,49.24
2023-02-28T01:50:29.791Z,49.36
2023-02-28T01:53:02.808Z,49.75
2023-02-28T01:55:30.994Z,49.66
2023-02-28T01:58:01.617Z,49.47
2023-02-28T02:00:30.137Z,50.06
2023-02-28T02:03:04.939Z,49.70
2023-02-28T02:05:32.364Z,49.67
2023-02-28T02:08:14.068Z,49.75
2023-02-28T02:10:46.007Z,49.73
2023-02-28T02:13:47.960Z,49.98
2023-02-28T02:16:39.553Z,50.24
2023-02-28T02:19:37.611Z,49.83
2023-02-28T02:23:01.487Z,50.33
2023-02-28T02:26:19.861Z,50.02
2023-02-28T02:28:57.833Z,50.37
2023-02-28T02:31:53.002Z,50.30
2023-02-28T02:34:41.409Z,50.85
2023-02-28T02:37:22.886Z,50.83
2023-02-28T02:40:12.379Z,51.68
2023-02-28T02:42:59.977Z,51.33
2023-02-28T02:45:41.047Z,51.24
2023-02-28T02:48:14.063Z,51.75
2023-02-28T02:50:47.919Z,51.75
2023-02-28T02:53:19.353Z,52.01
2023-02-28T02:55:53.973Z,51.65
2023-02-28T02:58:27.443Z,52.49
2023-02-28T03:01:00.249Z,52.80
2023-02-28T03:03:31.747Z,52.57
2023-02-28T03:06:03.865Z,52.36
2023-02-28T03:08:37.462Z,52.29
2023-02-28T03:11:16.467Z,53.36
2023-02-28T03:14:28.026Z,53.21
2023-02-28T03:17:17.656Z,53.54
2023-02-28T03:20:11.872Z,52.71
2023-02-28T03:22:58.842Z,52.52
2023-02-28T03:25:48.736Z,52.52
2023-02-28T03:28:38.620Z,52.49
2023-02-28T03:31:17.731Z,53.04
2023-02-28T03:34:15.055Z,52.40
2023-02-28T03:36:50.741Z,52.60
2023-02-28T03:39:30.060Z,51.78
2023-02-28T03:42:03.013Z,52.61
2023-02-28T03:44:47.577Z,52.84
2023-02-28T03:47:23.504Z,52.64
2023-02-28T03:50:11.614Z,52.94
2023-02-28T03:52:50.004Z,53.40
2023-02-28T03:55:18.719Z,53.27
2023-02-28T03:58:03.054Z,53.44
2023-02-28T04:00:39.243Z,52.96
2023-02-28T04:03:06.560Z,52.86
2023-02-28T04:05:34.158Z,52.89
2023-02-28T04:08:09.122Z,53.38
2023-02-28T04:10:36.026Z,52.48
2023-02-28T04:13:02.823Z,52.76
2023-02-28T04:15:29.684Z,52.23
2023-02-28T04:17:56.486Z,52.70
2023-02-28T04:20:23.326Z,52.46
2023-02-28T04:22:50.148Z,52.51
2023-02-28T04:25:17.039Z,52.60
2023-02-28T04:27:45.470Z,52.32
2023-02-28T04:30:13.124Z,52.15
2023-02-28T04:32:39.984Z,52.39
2023-02-28T04:35:07.519Z,52.00
2023-02-28T04:37:35.728Z,52.41
2023-02-28T04:40:03.773Z,51.92
2023-02-28T04:42:36.419Z,52.35
2023-02-28T04:45:04.852Z,52.70
2023-02-28T04:47:31.819Z,52.42
2023-02-28T04:49:59.192Z,52.49
2023-02-28T04:52:26.029Z,52.31
2023-02-28T04:54:52.885Z,52.32
2023-02-28T04:57:19.662Z,52.46
2023-02-28T04:59:46.591Z,52.32
2023-02-28T05:02:22.237Z,52.39
2023-02-28T05:04:49.150Z,52.12
2023-02-28T05:07:16.091Z,52.00
2023-02-28T05:09:42.920Z,52.32
2023-02-28T05:12:10.737Z,52.86
2023-02-28T05:14:37.637Z,52.76
2023-02-28T05:17:04.469Z,52.05
2023-02-28T05:19:31.260Z,52.32
2023-02-28T05:21:58.281Z,52.52
2023-02-28T05:24:25.195Z,52.02
2023-02-28T05:26:54.326Z,52.57
2023-02-28T05:29:21.677Z,52.25
2023-02-28T05:31:48.737Z,52.45
2023-02-28T05:34:17.069Z,52.75
2023-02-28T05:36:44.139Z,52.31
2023-02-28T05:39:13.519Z,52.00
2023-02-28T05:41:44.186Z,52.40
2023-02-28T05:44:11.786Z,53.01
2023-02-28T05:46:39.526Z,52.44
2023-02-28T05:49:06.490Z,52.49
2023-02-28T05:51:35.376Z,52.58
2023-02-28T05:54:03.307Z,52.88
2023-02-28T05:56:30.789Z,52.67
2023-02-28T05:58:58.065Z,52.92
2023-02-28T06:01:36.955Z,53.33
2023-02-28T06:04:06.606Z,52.95
2023-02-28T06:06:36.858Z,52.96
2023-02-28T06:09:06.128Z,53.14
2023-02-28T06:11:33.695Z,52.82
2023-02-28T06:14:01.815Z,53.68
2023-02-28T06:16:31.170Z,52.87
2023-02-28T06:19:04.283Z,53.14
2023-02-28T06:21:32.295Z,52.95
2023-02-28T06:24:00.349Z,53.10
2023-02-28T06:26:27.698Z,53.92
2023-02-28T06:28:55.215Z,53.25
2023-02-28T06:31:23.084Z,53.38
2023-02-28T06:33:50.349Z,52.85
2023-02-28T06:36:18.202Z,52.73
2023-02-28T06:38:46.426Z,53.09
2023-02-28T06:41:13.287Z,52.71
2023-02-28T06:43:42.968Z,52.27
2023-02-28T06:46:14.654Z,51.86
2023-02-28T06:48:44.575Z,51.81
2023-02-28T06:51:18.642Z,50.66
2023-02-28T06:53:45.579Z,50.19
2023-02-28T06:56:17.119Z,49.71
2023-02-28T06:58:51.690Z,49.32
2023-02-28T07:01:18.668Z,48.98
2023-02-28T07:03:46.098Z,48.78
2023-02-28T07:06:13.185Z,48.22
2023-02-28T07:08:41.948Z,48.03
2023-02-28T07:11:08.771Z,47.81
2023-02-28T07:13:35.595Z,46.94
2023-02-28T07:16:08.693Z,47.99
2023-02-28T07:18:36.720Z,46.86
2023-02-28T07:21:06.615Z,46.41
2023-02-28T07:23:33.712Z,45.91
2023-02-28T07:26:00.605Z,45.75
2023-02-28T07:28:28.300Z,45.07
2023-02-28T07:30:55.097Z,45.10
2023-02-28T07:33:21.946Z,44.97
2023-02-28T07:35:48.893Z,45.74
2023-02-28T07:38:16.378Z,45.13
2023-02-28T07:40:43.234Z,44.47
2023-02-28T07:43:10.202Z,44.31
2023-02-28T07:45:41.222Z,43.80
2023-02-28T07:48:10.895Z,44.04
2023-02-28T07:50:37.886Z,43.86
2023-02-28T07:53:05.438Z,43.04
2023-02-28T07:55:32.242Z,43.28
2023-02-28T07:57:59.468Z,42.82
2023-02-28T08:00:26.453Z,42.89
2023-02-28T08:02:53.257Z,41.92
2023-02-28T08:05:22.185Z,42.19
2023-02-28T08:07:50.872Z,41.77
2023-02-28T08:10:18.038Z,41.76
2023-02-28T08:12:44.935Z,42.09
2023-02-28T08:15:11.944Z,41.52
2023-02-28T08:17:38.963Z,41.19
2023-02-28T08:20:06.634Z,40.97
2023-02-28T08:22:33.482Z,40.73
2023-02-28T08:25:00.293Z,39.97
2023-02-28T08:27:27.091Z,39.85
2023-02-28T08:29:53.885Z,40.12
2023-02-28T08:32:29.262Z,39.90
2023-02-28T08:34:57.065Z,40.33
2023-02-28T08:37:24.256Z,40.91
2023-02-28T08:39:51.075Z,41.59
2023-02-28T08:42:17.910Z,41.21
2023-02-28T08:44:44.771Z,40.58
2023-02-28T08:47:11.636Z,40.82
2023-02-28T08:49:38.712Z,40.37
2023-02-28T08:52:05.579Z,38.88
2023-02-28T08:54:34.205Z,38.43
2023-02-28T08:57:01.445Z,38.64
2023-02-28T08:59:28.242Z,39.26
2023-02-28T09:01:55.033Z,38.12
2023-02-28T09:04:23.410Z,37.72
2023-02-28T09:06:51.830Z,38.12
2023-02-28T09:09:18.687Z,38.05
2023-02-28T09:11:45.512Z,37.66
2023-02-28T09:14:12.388Z,37.69
2023-02-28T09:16:39.290Z,37.04
2023-02-28T09:19:06.138Z,37.16
2023-02-28T09:21:33.005Z,37.32
2023-02-28T09:23:59.817Z,37.50
2023-02-28T09:26:34.858Z,37.97
2023-02-28T09:29:09.556Z,37.92
2023-02-28T09:31:36.634Z,37.26
2023-02-28T09:34:05.098Z,38.65
2023-02-28T09:36:43.678Z,38.19
2023-02-28T09:39:11.325Z,37.92
2023-02-28T09:41:48.306Z,37.27
2023-02-28T09:44:30.008Z,36.42
2023-02-28T09:47:02.763Z,37.12
2023-02-28T09:49:43.853Z,37.63
2023-02-28T09:52:18.917Z,38.71
2023-02-28T09:54:46.172Z,39.51
2023-02-28T09:57:41.343Z,38.32
2023-02-28T10:00:39.981Z,37.97
2023-02-28T10:03:58.881Z,38.25
2023-02-28T10:06:37.777Z,37.23
2023-02-28T10:09:17.596Z,36.79
2023-02-28T10:14:19.764Z,37.22
2023-02-28T10:17:03.811Z,36.78
2023-02-28T10:19:55.365Z,36.67
2023-02-28T10:22:38.117Z,36.18
2023-02-28T10:25:25.214Z,35.22
2023-02-28T10:28:01.877Z,35.50
2023-02-28T10:30:29.107Z,35.50
2023-02-28T10:32:56.321Z,36.41
2023-02-28T10:35:26.625Z,37.33
2023-02-28T10:37:59.006Z,38.15
2023-02-28T10:40:25.717Z,36.85
2023-02-28T10:43:27.605Z,37.40
2023-02-28T10:46:01.102Z,35.74
2023-02-28T10:48:37.721Z,35.60
2023-02-28T10:51:08.100Z,34.34
2023-02-28T10:54:00.007Z,34.26
2023-02-28T10:56:29.027Z,33.65
2023-02-28T10:59:27.959Z,32.55
2023-02-28T11:01:55.090Z,33.83
2023-02-28T11:04:41.230Z,35.42
2023-02-28T11:07:23.025Z,34.22
2023-02-28T11:09:56.891Z,33.89
2023-02-28T11:12:43.447Z,34.63
2023-02-28T11:15:32.278Z,34.91
2023-02-28T11:18:09.924Z,33.79
2023-02-28T11:20:37.032Z,34.91
2023-02-28T11:23:05.690Z,34.62
2023-02-28T11:25:39.261Z,34.36
2023-02-28T11:28:26.129Z,35.50
2023-02-28T11:31:20.429Z,34.72
2023-02-28T11:33:56.754Z,34.81
2023-02-28T11:36:28.333Z,33.91
2023-02-28T11:39:11.245Z,33.18
2023-02-28T11:42:45.490Z,33.47
2023-02-28T11:45:32.476Z,32.81
2023-02-28T11:48:19.910Z,33.07
2023-02-28T11:51:20.526Z,31.05
2023-02-28T11:54:24.531Z,30.44
2023-02-28T11:56:59.828Z,30.40
2023-02-28T11:59:46.117Z,30.66
2023-02-28T12:02:26.307Z,30.08
2023-02-28T12:05:17.058Z,29.07
2023-02-28T12:08:20.975Z,28.17
2023-02-28T12:11:20.571Z,28.51
2023-02-28T12:14:05.109Z,26.57
2023-02-28T12:16:56.914Z,26.50
2023-02-28T12:19:45.666Z,26.84
2023-02-28T12:23:18.113Z,26.06
2023-02-28T12:26:04.195Z,25.35
2023-02-28T12:28:39.113Z,25.83
2023-02-28T12:31:23.115Z,25.61
2023-02-28T12:34:07.036Z,26.30
2023-02-28T12:36:37.177Z,24.88
2023-02-28T12:39:17.382Z,25.59
2023-02-28T12:41:55.376Z,25.70
2023-02-28T12:44:49.802Z,24.32
2023-02-28T12:47:19.715Z,23.55
2023-02-28T12:50:05.735Z,22.72
2023-02-28T12:53:04.300Z,21.92
2023-02-28T12:55:49.146Z,20.87
2023-02-28T12:58:38.687Z,21.32
2023-02-28T13:01:40.492Z,22.83
2023-02-28T13:04:43.543Z,20.68
2023-02-28T13:07:54.657Z,20.43
2023-02-28T13:10:21.695Z,21.16
2023-02-28T13:12:54.031Z,20.88
2023-02-28T13:15:28.922Z,20.47
2023-02-28T13:18:00.637Z,19.53
2023-02-28T13:20:35.724Z,20.64
2023-02-28T13:23:03.238Z,20.68
2023-02-28T13:25:39.009Z,19.84
2023-02-28T13:28:15.312Z,20.81
2023-02-28T13:30:58.186Z,19.31
2023-02-28T13:33:34.800Z,20.34
2023-02-28T13:36:15.361Z,20.57
2023-02-28T13:39:07.850Z,20.94
2023-02-28T13:41:35.324Z,19.75
2023-02-28T13:44:11.123Z,18.99
2023-02-28T13:46:58.596Z,19.87
2023-02-28T13:49:34.738Z,19.10
2023-02-28T13:52:07.421Z,18.66
2023-02-28T13:54:56.911Z,20.53
2023-02-28T13:58:23.429Z,20.12
2023-02-28T14:01:17.132Z,20.66
2023-02-28T14:04:07.553Z,20.82
2023-02-28T14:06:36.872Z,21.92
2023-02-28T14:09:12.744Z,22.63
2023-02-28T14:11:42.070Z,23.32
2023-02-28T14:14:35.893Z,22.15
2023-02-28T14:17:15.541Z,21.96
2023-02-28T14:19:48.932Z,22.36
2023-02-28T14:22:36.827Z,21.52
2023-02-28T14:25:19.527Z,22.07
2023-02-28T14:28:17.230Z,22.36
2023-02-28T14:30:57.857Z,21.95
2023-02-28T14:33:30.076Z,20.96
2023-02-28T14:36:40.201Z,19.50
2023-02-28T14:39:20.940Z,20.76
2023-02-28T14:41:48.669Z,23.61
2023-02-28T14:44:25.455Z,25.87
2023-02-28T14:47:06.469Z,25.25
2023-02-28T14:49:46.580Z,23.71
2023-02-28T14:52:22.011Z,23.10
2023-02-28T14:55:01.324Z,21.73
2023-02-28T14:57:40.409Z,22.05
2023-02-28T15:00:25.786Z,21.19
2023-02-28T15:02:54.439Z,21.70
2023-02-28T15:05:31.636Z,22.48
2023-02-28T15:08:15.423Z,22.26
2023-02-28T15:10:46.452Z,23.14
2023-02-28T15:13:16.159Z,23.23
2023-02-28T15:16:01.311Z,22.80
2023-02-28T15:18:50.387Z,22.06
2023-02-28T15:21:33.750Z,22.47
2023-02-28T15:24:14.658Z,24.26
2023-02-28T15:26:47.667Z,24.85
2023-02-28T15:29:18.484Z,24.90
2023-02-28T15:31:57.412Z,23.84
2023-02-28T15:34:44.064Z,23.93
2023-02-28T15:37:36.814Z,25.76
2023-02-28T15:40:27.751Z,27.32
2023-02-28T15:43:24.904Z,28.81
2023-02-28T15:45:57.550Z,30.44
2023-02-28T15:48:30.167Z,31.54
2023-02-28T15:51:09.421Z,32.47
2023-02-28T15:54:11.919Z,33.21
2023-02-28T15:56:48.540Z,33.46
2023-02-28T15:59:23.251Z,33.74
2023-02-28T16:02:43.432Z,34.44
2023-02-28T16:05:10.218Z,35.18
2023-02-28T16:07:43.001Z,35.43
2023-02-28T16:10:14.985Z,36.55
2023-02-28T16:12:42.741Z,36.58
2023-02-28T16:15:29.521Z,37.03
2023-02-28T16:17:58.212Z,37.36
2023-02-28T16:20:27.870Z,38.57
2023-02-28T16:22:55.424Z,38.70
2023-02-28T16:25:35.612Z,39.28
2023-02-28T16:28:03.468Z,39.74
2023-02-28T16:30:34.046Z,39.54
2023-02-28T16:33:01.298Z,39.73
2023-02-28T16:35:28.292Z,40.23
2023-02-28T16:37:55.463Z,39.92
2023-02-28T16:40:26.571Z,41.13
2023-02-28T16:42:59.495Z,41.05
2023-02-28T16:45:29.546Z,41.48
2023-02-28T16:47:57.148Z,41.46
2023-02-28T16:50:27.767Z,41.25
2023-02-28T16:52:56.168Z,41.75
2023-02-28T16:55:25.286Z,41.61
2023-02-28T16:57:58.855Z,43.31
2023-02-28T17:00:28.540Z,44.07
2023-02-28T17:02:56.764Z,44.30
2023-02-28T17:05:24.875Z,44.41
2023-02-28T17:07:51.771Z,44.67
2023-02-28T17:10:18.479Z,44.98
2023-02-28T17:12:45.294Z,45.02
2023-02-28T17:15:15.429Z,45.47
2023-02-28T17:17:43.835Z,45.61
2023-02-28T17:20:28.692Z,45.97
2023-02-28T17:22:57.011Z,46.08
2023-02-28T17:25:25.385Z,46.89
2023-02-28T17:27:52.371Z,46.67
2023-02-28T17:30:30.122Z,47.03
2023-02-28T17:32:57.614Z,47.05
2023-02-28T17:35:25.309Z,47.15
2023-02-28T17:37:52.266Z,46.98
2023-02-28T17:40:23.180Z,47.41
2023-02-28T17:42:50.386Z,48.42
2023-02-28T17:45:17.401Z,47.66
2023-02-28T17:47:49.182Z,47.50
2023-02-28T17:50:20.170Z,47.69
2023-02-28T17:52:47.284Z,47.70
2023-02-28T17:55:14.671Z,47.84
2023-02-28T17:57:42.859Z,48.31
2023-02-28T18:00:14.481Z,48.32
2023-02-28T18:02:41.477Z,48.76
2023-02-28T18:05:09.079Z,48.83
2023-02-28T18:07:39.256Z,49.00
2023-02-28T18:10:09.300Z,48.74
2023-02-28T18:12:36.170Z,48.96
2023-02-28T18:15:03.174Z,49.22
2023-02-28T18:17:29.976Z,48.93
2023-02-28T18:19:56.902Z,49.26
2023-02-28T18:22:23.894Z,48.92
2023-02-28T18:24:50.816Z,48.65
2023-02-28T18:27:17.728Z,48.86
2023-02-28T18:29:44.686Z,48.73
2023-02-28T18:32:11.636Z,48.94
2023-02-28T18:34:38.607Z,49.46
2023-02-28T18:37:05.472Z,49.47
2023-02-28T18:39:32.465Z,49.33
2023-02-28T18:41:59.349Z,49.64
2023-02-28T18:44:26.231Z,49.40
2023-02-28T18:46:53.413Z,49.37
2023-02-28T18:49:20.571Z,49.47
2023-02-28T18:51:47.778Z,49.61
2023-02-28T18:54:16.821Z,49.35
2023-02-28T18:56:44.010Z,48.86
2023-02-28T18:59:11.395Z,48.65
2023-02-28T19:01:39.121Z,48.55
2023-02-28T19:04:06.535Z,48.47
2023-02-28T19:06:34.207Z,48.40
2023-02-28T19:09:03.680Z,48.49
2023-02-28T19:11:31.386Z,48.56
2023-02-28T19:13:58.503Z,48.55
2023-02-28T19:16:27.801Z,48.83
2023-02-28T19:18:55.611Z,48.55
2023-02-28T19:21:24.720Z,48.83
2023-02-28T19:23:51.692Z,49.17
2023-02-28T19:26:23.123Z,49.43
2023-02-28T19:28:50.681Z,48.90
2023-02-28T19:31:22.474Z,48.88
2023-02-28T19:33:49.665Z,48.55
2023-02-28T19:36:16.763Z,48.25
2023-02-28T19:38:44.782Z,48.12
2023-02-28T19:41:14.664Z,48.38
2023-02-28T19:43:42.056Z,48.29
2023-02-28T19:46:09.731Z,48.40
2023-02-28T19:48:37.060Z,48.57
2023-02-28T19:51:09.112Z,48.91
2023-02-28T19:53:38.755Z,48.68
2023-02-28T19:56:07.267Z,48.53
2023-02-28T19:58:34.731Z,48.36
2023-02-28T20:01:14.578Z,48.75
2023-02-28T20:03:42.964Z,48.63
2023-02-28T20:06:13.859Z,48.12
2023-02-28T20:08:41.198Z,48.19
2023-02-28T20:11:16.354Z,48.15
2023-02-28T20:13:44.586Z,48.54
2023-02-28T20:16:12.573Z,48.84
2023-02-28T20:18:41.122Z,48.57
2023-02-28T20:21:09.953Z,48.27
2023-02-28T20:23:41.786Z,48.78
2023-02-28T20:26:09.957Z,48.91
2023-02-28T20:28:38.400Z,48.88
2023-02-28T20:31:18.742Z,49.28
2023-02-28T20:33:47.022Z,49.50
2023-02-28T20:36:16.083Z,49.30
2023-02-28T20:38:43.485Z,49.07
2023-02-28T20:41:10.372Z,48.98
2023-02-28T20:43:37.272Z,48.69
2023-02-28T20:46:04.466Z,48.47
2023-02-28T20:48:33.735Z,48.97
2023-02-28T20:51:00.839Z,49.70
2023-02-28T20:53:29.284Z,49.06
2023-02-28T20:55:58.151Z,49.16
2023-02-28T20:58:28.292Z,49.05
2023-02-28T21:01:15.909Z,49.07
2023-02-28T21:03:45.282Z,49.24
2023-02-28T21:06:13.089Z,49.31
2023-02-28T21:08:40.706Z,49.59
2023-02-28T21:11:16.843Z,49.78
2023-02-28T21:13:45.620Z,49.66
2023-02-28T21:16:17.517Z,49.49
2023-02-28T21:18:44.889Z,49.47
2023-02-28T21:21:18.208Z,49.44
2023-02-28T21:23:46.657Z,49.06
2023-02-28T21:26:19.896Z,49.34
2023-02-28T21:28:59.110Z,49.47
2023-02-28T21:31:28.906Z,49.19
2023-02-28T21:33:58.203Z,49.15
2023-02-28T21:36:33.074Z,49.22
2023-02-28T21:39:04.955Z,49.67
2023-02-28T21:41:31.779Z,49.97
2023-02-28T21:43:58.592Z,49.74
2023-02-28T21:46:28.896Z,49.68
2023-02-28T21:48:56.853Z,49.36
2023-02-28T21:51:31.119Z,49.41
2023-02-28T21:54:01.948Z,49.65
2023-02-28T21:56:32.803Z,50.02
2023-02-28T21:59:00.703Z,49.46
2023-02-28T22:01:34.882Z,49.79
2023-02-28T22:04:03.910Z,49.94
2023-02-28T22:06:39.347Z,49.61
2023-02-28T22:09:08.845Z,49.61
2023-02-28T22:11:38.003Z,49.72
2023-02-28T22:14:06.566Z,48.94
2023-02-28T22:16:49.551Z,49.22
2023-02-28T22:19:18.323Z,49.53
2023-02-28T22:21:45.716Z,49.79
2023-02-28T22:24:12.765Z,49.29
2023-02-28T22:26:39.583Z,49.41
2023-02-28T22:29:06.697Z,50.17
2023-02-28T22:31:35.472Z,49.98
2023-02-28T22:34:07.893Z,49.81
2023-02-28T22:36:35.157Z,49.97
2023-02-28T22:39:02.249Z,49.86
2023-02-28T22:41:29.684Z,49.84
2023-02-28T22:44:00.166Z,49.27
2023-02-28T22:46:30.034Z,49.68
2023-02-28T22:48:59.797Z,49.97
2023-02-28T22:51:28.238Z,50.08
2023-02-28T22:53:56.678Z,49.87
2023-02-28T22:56:26.044Z,49.88
2023-02-28T22:58:56.115Z,49.44
2023-02-28T23:01:26.218Z,49.92
2023-02-28T23:03:53.578Z,49.50
2023-02-28T23:06:29.956Z,49.80
2023-02-28T23:09:01.230Z,49.96
2023-02-28T23:11:33.345Z,50.14
2023-02-28T23:14:00.758Z,50.60
2023-02-28T23:16:31.837Z,50.32
2023-02-28T23:19:02.547Z,50.48
2023-02-28T23:21:30.207Z,50.43
2023-02-28T23:23:57.370Z,50.51
2023-02-28T23:26:24.393Z,50.91
2023-02-28T23:28:51.232Z,50.70
2023-02-28T23:31:18.113Z,50.29
2023-02-28T23:33:44.999Z,50.26
2023-02-28T23:36:14.908Z,50.79
2023-02-28T23:38:45.716Z,50.80
2023-02-28T23:41:14.029Z,50.51
2023-02-28T23:43:41.225Z,50.58
2023-02-28T23:46:10.058Z,50.43
2023-02-28T23:48:37.312Z,50.50
2023-02-28T23:51:08.465Z,50.36
2023-02-28T23:53:41.247Z,50.13
2023-02-28T23:56:11.760Z,50.03
2023-02-28T23:58:38.558Z,50.10
